| time (UTC) | temp F | wind direction | speed MPH | gust MPH | rain 1hr in | rain 24hr in | rain mn in | humidity % | barometer mb |
| 20260507195605 | 66 | 119 | 1.0 | 2.0 | 0.00 | 0.13 | 0.13 | 34 | 1007.3 |
| 20260507195105 | 66 | 264 | 2.0 | 5.0 | 0.00 | 0.13 | 0.13 | 34 | 1007.4 |
| 20260507194104 | 66 | 200 | 1.0 | 3.0 | 0.00 | 0.13 | 0.13 | 34 | 1007.5 |
| 20260507193604 | 66 | 145 | 1.0 | 3.0 | 0.00 | 0.13 | 0.13 | 34 | 1007.6 |
| 20260507193104 | 66 | 295 | 2.0 | 5.0 | 0.00 | 0.13 | 0.13 | 34 | 1007.5 |
| 20260507192604 | 66 | 274 | 1.0 | 5.0 | 0.00 | 0.13 | 0.13 | 34 | 1007.6 |
| 20260507192105 | 66 | 336 | 2.0 | 5.0 | 0.00 | 0.13 | 0.13 | 32 | 1007.6 |
| 20260507191604 | 66 | 314 | 2.0 | 5.0 | 0.00 | 0.13 | 0.13 | 35 | 1007.8 |
| 20260507191105 | 67 | 9 | 2.0 | 5.0 | 0.00 | 0.13 | 0.13 | 34 | 1007.9 |
| 20260507190604 | 67 | 1 | 0.0 | 3.0 | 0.00 | 0.13 | 0.13 | 33 | 1008.0 |
| 20260507185605 | 66 | 7 | 1.0 | 3.0 | 0.00 | 0.13 | 0.13 | 33 | 1008.2 |
| 20260507185104 | 66 | 352 | 3.0 | 6.0 | 0.00 | 0.13 | 0.13 | 34 | 1008.2 |
| 20260507184104 | 66 | 141 | 0.0 | 3.0 | 0.00 | 0.13 | 0.13 | 35 | 1008.2 |
| 20260507183605 | 66 | 269 | 2.0 | 6.0 | 0.00 | 0.13 | 0.13 | 34 | 1008.2 |
| 20260507183105 | 67 | 343 | 2.0 | 5.0 | 0.00 | 0.13 | 0.13 | 35 | 1008.3 |
| 20260507182604 | 67 | 7 | 2.0 | 3.0 | 0.00 | 0.13 | 0.13 | 37 | 1008.2 |
| 20260507182104 | 66 | 304 | 2.0 | 3.0 | 0.00 | 0.13 | 0.13 | 35 | 1008.2 |
| 20260507181605 | 65 | 60 | 1.0 | 3.0 | 0.00 | 0.13 | 0.13 | 35 | 1008.2 |
| 20260507181105 | 65 | 274 | 1.0 | 7.0 | 0.00 | 0.13 | 0.13 | 37 | 1008.3 |
| 20260507180104 | 65 | 1 | 2.0 | 6.0 | 0.00 | 0.13 | 0.13 | 36 | 1008.6 |
| 20260507175604 | 64 | 294 | 2.0 | 5.0 | 0.00 | 0.13 | 0.13 | 35 | 1008.6 |
| 20260507174604 | 64 | 316 | 1.0 | 3.0 | 0.00 | 0.13 | 0.13 | 39 | 1008.7 |
| 20260507174105 | 64 | 343 | 3.0 | 8.0 | 0.00 | 0.13 | 0.13 | 39 | 1008.8 |
| 20260507173605 | 63 | 334 | 1.0 | 5.0 | 0.00 | 0.13 | 0.13 | 37 | 1008.8 |
| 20260507173105 | 64 | 336 | 3.0 | 7.0 | 0.00 | 0.13 | 0.13 | 40 | 1008.9 |
| 20260507172604 | 64 | 255 | 2.0 | 7.0 | 0.00 | 0.13 | 0.13 | 41 | 1009.0 |
| 20260507171605 | 63 | 310 | 3.0 | 12.0 | 0.00 | 0.13 | 0.13 | 38 | 1009.2 |
| 20260507171104 | 63 | 290 | 2.0 | 6.0 | 0.00 | 0.13 | 0.13 | 42 | 1009.4 |
| 20260507170605 | 63 | 338 | 1.0 | 3.0 | 0.00 | 0.13 | 0.13 | 41 | 1009.4 |
| 20260507170104 | 63 | 302 | 2.0 | 7.0 | 0.00 | 0.13 | 0.13 | 44 | 1009.4 |
| 20260507165605 | 62 | 331 | 1.0 | 3.0 | 0.00 | 0.13 | 0.13 | 45 | 1009.4 |
| 20260507165104 | 62 | 64 | 0.0 | 2.0 | 0.00 | 0.13 | 0.13 | 47 | 1009.7 |
| 20260507164605 | 62 | 92 | 0.0 | 3.0 | 0.00 | 0.13 | 0.13 | 47 | 1009.6 |
| 20260507164105 | 62 | 345 | 1.0 | 2.0 | 0.00 | 0.13 | 0.13 | 49 | 1009.7 |
| 20260507163605 | 62 | 126 | 1.0 | 2.0 | 0.00 | 0.13 | 0.13 | 46 | 1009.8 |
| 20260507163104 | 61 | 77 | 1.0 | 3.0 | 0.00 | 0.14 | 0.13 | 48 | 1009.9 |
| 20260507162105 | 61 | 135 | 2.0 | 8.0 | 0.00 | 0.14 | 0.13 | 49 | 1010.0 |
| 20260507161605 | 61 | 27 | 1.0 | 3.0 | 0.00 | 0.14 | 0.13 | 50 | 1010.1 |
| 20260507161105 | 61 | 263 | 1.0 | 3.0 | 0.00 | 0.14 | 0.13 | 49 | 1010.2 |
| 20260507160605 | 61 | 312 | 1.0 | 3.0 | 0.00 | 0.14 | 0.13 | 47 | 1010.1 |
| 20260507155604 | 62 | 187 | 2.0 | 3.0 | 0.00 | 0.14 | 0.13 | 53 | 1010.0 |
| 20260507155105 | 61 | 234 | 1.0 | 3.0 | 0.00 | 0.14 | 0.13 | 52 | 1010.2 |
| 20260507154604 | 60 | 343 | 2.0 | 5.0 | 0.00 | 0.14 | 0.13 | 52 | 1010.2 |
| 20260507153605 | 60 | 184 | 1.0 | 3.0 | 0.00 | 0.14 | 0.13 | 55 | 1010.4 |
| 20260507153105 | 59 | 289 | 1.0 | 2.0 | 0.00 | 0.14 | 0.13 | 56 | 1010.6 |
| 20260507152605 | 59 | 3 | 1.0 | 3.0 | 0.00 | 0.14 | 0.13 | 56 | 1010.7 |
| 20260507152105 | 58 | 319 | 1.0 | 3.0 | 0.00 | 0.14 | 0.13 | 57 | 1010.8 |
| 20260507151606 | 58 | 96 | 1.0 | 3.0 | 0.00 | 0.14 | 0.13 | 55 | 1010.8 |
| 20260507151105 | 58 | 7 | 2.0 | 7.0 | 0.00 | 0.14 | 0.13 | 55 | 1010.8 |
| 20260507150605 | 58 | 28 | 1.0 | 5.0 | 0.00 | 0.14 | 0.13 | 54 | 1011.0 |
| 20260507150105 | 58 | 340 | 2.0 | 3.0 | 0.00 | 0.14 | 0.13 | 56 | 1010.9 |
| 20260507145605 | 58 | 248 | 1.0 | 3.0 | 0.00 | 0.14 | 0.13 | 57 | 1011.0 |
| 20260507145105 | 58 | 315 | 2.0 | 5.0 | 0.00 | 0.14 | 0.13 | 55 | 1011.0 |
| 20260507144605 | 58 | 352 | 1.0 | 3.0 | 0.00 | 0.14 | 0.13 | 56 | 1011.1 |
| 20260507144104 | 57 | 2 | 1.0 | 6.0 | 0.00 | 0.14 | 0.13 | 56 | 1011.1 |
| 20260507143604 | 57 | 326 | 2.0 | 6.0 | 0.00 | 0.14 | 0.13 | 55 | 1011.2 |
| 20260507143105 | 57 | 347 | 2.0 | 6.0 | 0.00 | 0.14 | 0.13 | 56 | 1011.2 |
| 20260507142605 | 57 | 0 | 2.0 | 5.0 | 0.00 | 0.14 | 0.13 | 57 | 1011.1 |
| 20260507142105 | 57 | 337 | 1.0 | 2.0 | 0.00 | 0.14 | 0.13 | 60 | 1011.1 |
| 20260507141604 | 56 | 280 | 1.0 | 3.0 | 0.00 | 0.14 | 0.13 | 59 | 1011.2 |
| 20260507141105 | 56 | 69 | 1.0 | 3.0 | 0.00 | 0.14 | 0.13 | 62 | 1011.1 |
| 20260507140605 | 56 | 345 | 0.0 | 3.0 | 0.00 | 0.14 | 0.13 | 62 | 1011.1 |
| 20260507140104 | 56 | 354 | 2.0 | 6.0 | 0.00 | 0.14 | 0.13 | 62 | 1011.2 |
| 20260507135604 | 56 | 301 | 1.0 | 5.0 | 0.00 | 0.14 | 0.13 | 64 | 1011.2 |
| 20260507135105 | 55 | 59 | 0.0 | 3.0 | 0.00 | 0.14 | 0.13 | 65 | 1011.3 |
| 20260507134605 | 55 | 315 | 1.0 | 3.0 | 0.00 | 0.14 | 0.13 | 62 | 1011.4 |
| 20260507134105 | 55 | 303 | 1.0 | 5.0 | 0.00 | 0.14 | 0.13 | 64 | 1011.4 |
| 20260507133105 | 55 | 323 | 2.0 | 6.0 | 0.00 | 0.14 | 0.13 | 66 | 1011.2 |
| 20260507132605 | 54 | 92 | 1.0 | 5.0 | 0.00 | 0.14 | 0.13 | 67 | 1011.2 |
| 20260507132105 | 54 | 318 | 1.0 | 3.0 | 0.00 | 0.14 | 0.13 | 68 | 1011.2 |
| 20260507131605 | 54 | 282 | 0.0 | 1.0 | 0.00 | 0.14 | 0.13 | 70 | 1011.3 |
| 20260507131105 | 54 | 297 | 2.0 | 3.0 | 0.00 | 0.14 | 0.13 | 69 | 1011.4 |
| 20260507130605 | 54 | 323 | 1.0 | 5.0 | 0.00 | 0.14 | 0.13 | 70 | 1011.4 |
| 20260507130105 | 54 | 313 | 2.0 | 5.0 | 0.00 | 0.14 | 0.13 | 70 | 1011.4 |
| 20260507125605 | 54 | 323 | 1.0 | 2.0 | 0.00 | 0.14 | 0.13 | 71 | 1011.3 |
| 20260507125105 | 54 | 329 | 2.0 | 5.0 | 0.00 | 0.14 | 0.13 | 72 | 1011.3 |
| 20260507123605 | 53 | 330 | 1.0 | 3.0 | 0.00 | 0.14 | 0.13 | 73 | 1011.3 |
| 20260507123105 | 53 | 95 | 0.0 | 1.0 | 0.00 | 0.14 | 0.13 | 74 | 1011.3 |
| 20260507122604 | 53 | 334 | 0.0 | 2.0 | 0.00 | 0.14 | 0.13 | 74 | 1011.3 |
| 20260507122104 | 53 | 328 | 0.0 | 1.0 | 0.00 | 0.14 | 0.13 | 75 | 1011.1 |
| 20260507121606 | 53 | 331 | 0.0 | 2.0 | 0.00 | 0.14 | 0.13 | 75 | 1011.1 |
| 20260507121105 | 53 | 356 | 0.0 | 2.0 | 0.00 | 0.14 | 0.13 | 75 | 1011.1 |
| 20260507120605 | 53 | 249 | 1.0 | 3.0 | 0.00 | 0.14 | 0.13 | 75 | 1011.1 |
| 20260507120105 | 52 | 327 | 0.0 | 2.0 | 0.00 | 0.14 | 0.13 | 76 | 1011.0 |
| 20260507115105 | 52 | 311 | 0.0 | 1.0 | 0.00 | 0.14 | 0.13 | 78 | 1011.1 |
| 20260507114605 | 52 | 321 | 1.0 | 2.0 | 0.00 | 0.14 | 0.13 | 78 | 1011.0 |
| 20260507114105 | 52 | 127 | 0.0 | 1.0 | 0.00 | 0.14 | 0.13 | 79 | 1011.1 |
| 20260507113605 | 52 | 158 | 1.0 | 2.0 | 0.00 | 0.14 | 0.13 | 79 | 1011.1 |
| 20260507113105 | 52 | 314 | 0.0 | 1.0 | 0.00 | 0.14 | 0.13 | 79 | 1011.2 |
| 20260507112604 | 51 | 315 | 1.0 | 2.0 | 0.00 | 0.14 | 0.13 | 79 | 1011.0 |
| 20260507112105 | 51 | 304 | 0.0 | 0.0 | 0.00 | 0.14 | 0.13 | 80 | 1010.9 |
| 20260507111605 | 51 | 304 | 0.0 | 0.0 | 0.00 | 0.14 | 0.13 | 80 | 1010.8 |
| 20260507111104 | 51 | 304 | 0.0 | 0.0 | 0.00 | 0.14 | 0.13 | 80 | 1010.8 |
| 20260507110105 | 51 | 304 | 0.0 | 1.0 | 0.00 | 0.14 | 0.13 | 80 | 1010.6 |
| 20260507105604 | 51 | 63 | 0.0 | 0.0 | 0.00 | 0.14 | 0.13 | 80 | 1010.5 |
| 20260507105104 | 51 | 63 | 0.0 | 1.0 | 0.00 | 0.14 | 0.13 | 80 | 1010.4 |
| 20260507104604 | 51 | 63 | 0.0 | 0.0 | 0.00 | 0.14 | 0.13 | 80 | 1010.2 |
| 20260507104105 | 51 | 63 | 0.0 | 0.0 | 0.00 | 0.14 | 0.13 | 80 | 1010.2 |
| 20260507103605 | 50 | 63 | 0.0 | 2.0 | 0.00 | 0.14 | 0.13 | 80 | 1010.3 |
| 20260507103104 | 50 | 56 | 0.0 | 0.0 | 0.00 | 0.14 | 0.13 | 80 | 1010.1 |
| 20260507102605 | 50 | 56 | 0.0 | 0.0 | 0.00 | 0.14 | 0.13 | 80 | 1010.0 |
| 20260507102105 | 50 | 56 | 0.0 | 0.0 | 0.00 | 0.14 | 0.13 | 80 | 1010.0 |
| 20260507101605 | 50 | 56 | 0.0 | 0.0 | 0.00 | 0.14 | 0.13 | 79 | 1009.9 |
| 20260507101104 | 50 | 56 | 0.0 | 0.0 | 0.00 | 0.14 | 0.13 | 79 | 1010.0 |
| 20260507100606 | 50 | 56 | 0.0 | 0.0 | 0.00 | 0.14 | 0.13 | 79 | 1010.0 |
| 20260507100104 | 50 | 56 | 0.0 | 0.0 | 0.00 | 0.14 | 0.13 | 79 | 1009.9 |
| 20260507095105 | 50 | 32 | 0.0 | 0.0 | 0.00 | 0.14 | 0.13 | 79 | 1010.0 |
| 20260507094605 | 50 | 35 | 0.0 | 0.0 | 0.00 | 0.14 | 0.13 | 79 | 1009.8 |
| 20260507094105 | 50 | 78 | 0.0 | 2.0 | 0.00 | 0.14 | 0.13 | 79 | 1010.0 |
| 20260507093604 | 50 | 269 | 0.0 | 2.0 | 0.00 | 0.14 | 0.13 | 79 | 1009.7 |
| 20260507093105 | 50 | 325 | 0.0 | 1.0 | 0.00 | 0.14 | 0.13 | 79 | 1009.8 |
| 20260507092604 | 50 | 249 | 0.0 | 1.0 | 0.00 | 0.14 | 0.13 | 79 | 1009.7 |
| 20260507092105 | 50 | 249 | 0.0 | 1.0 | 0.00 | 0.14 | 0.13 | 79 | 1009.7 |
| 20260507091604 | 50 | 255 | 0.0 | 1.0 | 0.00 | 0.14 | 0.13 | 79 | 1009.7 |
| 20260507085104 | 50 | 323 | 0.0 | 2.0 | 0.00 | 0.14 | 0.13 | 79 | 1009.6 |
| 20260507084605 | 50 | 3 | 0.0 | 2.0 | 0.00 | 0.14 | 0.13 | 79 | 1009.6 |
| 20260507084104 | 50 | 138 | 0.0 | 1.0 | 0.00 | 0.14 | 0.13 | 79 | 1009.4 |
| 20260507083105 | 51 | 336 | 1.0 | 5.0 | 0.00 | 0.14 | 0.13 | 79 | 1009.3 |
| 20260507082605 | 51 | 12 | 0.0 | 3.0 | 0.00 | 0.14 | 0.13 | 79 | 1009.3 |
| 20260507082105 | 51 | 322 | 0.0 | 5.0 | 0.00 | 0.14 | 0.13 | 79 | 1009.3 |
| 20260507081604 | 51 | 0 | 1.0 | 7.0 | 0.00 | 0.14 | 0.13 | 80 | 1009.3 |
| 20260507081105 | 51 | 73 | 1.0 | 6.0 | 0.00 | 0.14 | 0.13 | 80 | 1009.3 |
| 20260507080604 | 51 | 2 | 1.0 | 2.0 | 0.00 | 0.14 | 0.13 | 80 | 1009.3 |
| 20260507080105 | 51 | 123 | 0.0 | 3.0 | 0.00 | 0.14 | 0.13 | 80 | 1009.4 |
| 20260507075605 | 51 | 102 | 1.0 | 3.0 | 0.00 | 0.14 | 0.13 | 80 | 1009.3 |
| 20260507075104 | 51 | 314 | 1.0 | 3.0 | 0.00 | 0.14 | 0.13 | 80 | 1009.2 |
| 20260507074604 | 51 | 269 | 2.0 | 5.0 | 0.00 | 0.14 | 0.13 | 80 | 1009.3 |
| 20260507074105 | 51 | 298 | 1.0 | 5.0 | 0.00 | 0.14 | 0.13 | 80 | 1009.5 |
| 20260507073604 | 51 | 355 | 1.0 | 6.0 | 0.00 | 0.14 | 0.13 | 80 | 1009.4 |
| 20260507073105 | 51 | 294 | 1.0 | 6.0 | 0.00 | 0.14 | 0.13 | 80 | 1009.5 |
| 20260507072604 | 51 | 308 | 2.0 | 3.0 | 0.01 | 0.14 | 0.13 | 80 | 1009.6 |
| 20260507072104 | 51 | 136 | 1.0 | 5.0 | 0.02 | 0.14 | 0.13 | 80 | 1009.6 |
| 20260507071105 | 52 | 295 | 1.0 | 6.0 | 0.03 | 0.14 | 0.13 | 82 | 1010.1 |
| 20260507070605 | 52 | 310 | 3.0 | 7.0 | 0.04 | 0.14 | 0.13 | 82 | 1010.0 |
| 20260507070105 | 53 | 307 | 2.0 | 6.0 | 0.04 | 0.14 | 0.13 | 83 | 1009.6 |
| 20260507065605 | 53 | 270 | 1.0 | 1.0 | 0.05 | 0.14 | 0.13 | 82 | 1009.5 |
| 20260507064604 | 53 | 308 | 0.0 | 2.0 | 0.13 | 0.14 | 0.13 | 81 | 1009.2 |
| 20260507064104 | 53 | 303 | 1.0 | 2.0 | 0.13 | 0.14 | 0.13 | 81 | 1009.3 |
| 20260507063604 | 53 | 124 | 0.0 | 1.0 | 0.13 | 0.14 | 0.13 | 80 | 1009.1 |
| 20260507063105 | 53 | 307 | 0.0 | 5.0 | 0.13 | 0.14 | 0.13 | 80 | 1009.0 |
| 20260507062604 | 53 | 319 | 1.0 | 6.0 | 0.12 | 0.13 | 0.12 | 79 | 1009.2 |
| 20260507061605 | 54 | 335 | 1.0 | 7.0 | 0.11 | 0.12 | 0.11 | 79 | 1009.4 |
| 20260507061104 | 55 | 287 | 2.0 | 5.0 | 0.10 | 0.11 | 0.10 | 78 | 1009.4 |
| 20260507060604 | 55 | 289 | 1.0 | 3.0 | 0.09 | 0.10 | 0.09 | 78 | 1009.2 |
| 20260507055605 | 57 | 290 | 2.0 | 7.0 | 0.08 | 0.09 | 0.08 | 76 | 1009.4 |
| 20260507055105 | 57 | 290 | 1.0 | 5.0 | 0.01 | 0.02 | 0.01 | 75 | 1009.8 |
| 20260507054605 | 57 | 265 | 1.0 | 3.0 | 0.00 | 0.01 | 0.00 | 74 | 1009.1 |
| 20260507054105 | 58 | 313 | 1.0 | 7.0 | 0.00 | 0.01 | 0.00 | 73 | 1008.9 |
| 20260507053604 | 58 | 233 | 1.0 | 3.0 | 0.00 | 0.01 | 0.00 | 73 | 1008.4 |
| 20260507053105 | 58 | 258 | 0.0 | 6.0 | 0.00 | 0.01 | 0.00 | 72 | 1008.8 |
| 20260507052604 | 58 | 335 | 1.0 | 3.0 | 0.00 | 0.01 | 0.00 | 72 | 1009.0 |
| 20260507052105 | 58 | 69 | 1.0 | 7.0 | 0.00 | 0.01 | 0.00 | 72 | 1008.8 |
| 20260507050604 | 59 | 307 | 0.0 | 6.0 | 0.00 | 0.01 | 0.00 | 72 | 1008.7 |
| 20260507045604 | 59 | 305 | 1.0 | 7.0 | 0.00 | 0.01 | 0.00 | 72 | 1008.0 |
| 20260507045105 | 59 | 299 | 1.0 | 5.0 | 0.00 | 0.01 | 0.00 | 72 | 1008.2 |
| 20260507044605 | 60 | 2 | 1.0 | 3.0 | 0.00 | 0.01 | 0.00 | 71 | 1008.2 |
| 20260507044105 | 60 | 332 | 2.0 | 6.0 | 0.00 | 0.01 | 0.00 | 72 | 1008.3 |
| 20260507043605 | 60 | 324 | 1.0 | 7.0 | 0.00 | 0.01 | 0.00 | 72 | 1008.4 |
| 20260507043105 | 62 | 316 | 1.0 | 6.0 | 0.00 | 0.01 | 0.00 | 72 | 1008.3 |
| 20260507042606 | 63 | 292 | 1.0 | 5.0 | 0.00 | 0.01 | 0.00 | 72 | 1008.1 |
| 20260507042105 | 64 | 5 | 2.0 | 6.0 | 0.00 | 0.01 | 0.00 | 75 | 1007.9 |
| 20260507041605 | 64 | 23 | 1.0 | 3.0 | 0.00 | 0.01 | 0.00 | 74 | 1008.0 |
| 20260507041106 | 65 | 328 | 1.0 | 3.0 | 0.00 | 0.01 | 0.00 | 74 | 1008.0 |
| 20260507040605 | 65 | 333 | 0.0 | 3.0 | 0.00 | 0.01 | 0.00 | 74 | 1007.9 |
| 20260507040105 | 65 | 311 | 1.0 | 3.0 | 0.00 | 0.01 | 0.00 | 74 | 1007.8 |
| 20260507035605 | 65 | 116 | 1.0 | 3.0 | 0.00 | 0.01 | 0.01 | 75 | 1007.8 |
| 20260507035105 | 66 | 159 | 3.0 | 9.0 | 0.00 | 0.01 | 0.01 | 76 | 1007.9 |
| 20260507034605 | 66 | 282 | 1.0 | 7.0 | 0.00 | 0.01 | 0.01 | 76 | 1008.0 |
| 20260507034105 | 66 | 178 | 1.0 | 7.0 | 0.00 | 0.01 | 0.01 | 76 | 1008.0 |
| 20260507033605 | 66 | 60 | 0.0 | 5.0 | 0.00 | 0.01 | 0.01 | 75 | 1008.1 |
| 20260507033105 | 66 | 48 | 0.0 | 2.0 | 0.00 | 0.01 | 0.01 | 75 | 1007.9 |
| 20260507032605 | 66 | 14 | 0.0 | 2.0 | 0.00 | 0.01 | 0.01 | 75 | 1007.7 |
| 20260507031105 | 66 | 151 | 0.0 | 2.0 | 0.00 | 0.01 | 0.01 | 75 | 1007.5 |
| 20260507030605 | 66 | 167 | 1.0 | 2.0 | 0.00 | 0.01 | 0.01 | 75 | 1007.4 |
| 20260507030105 | 66 | 152 | 0.0 | 2.0 | 0.00 | 0.01 | 0.01 | 75 | 1007.6 |
| 20260507025605 | 66 | 129 | 1.0 | 3.0 | 0.00 | 0.01 | 0.01 | 75 | 1007.8 |
| 20260507025105 | 66 | 115 | 1.0 | 3.0 | 0.00 | 0.01 | 0.01 | 75 | 1007.8 |
| 20260507024605 | 66 | 110 | 1.0 | 3.0 | 0.00 | 0.01 | 0.01 | 75 | 1007.8 |
| 20260507024105 | 66 | 304 | 0.0 | 2.0 | 0.00 | 0.01 | 0.01 | 75 | 1007.7 |
| 20260507022106 | 66 | 125 | 0.0 | 3.0 | 0.00 | 0.01 | 0.01 | 75 | 1007.8 |
| 20260507021606 | 66 | 126 | 0.0 | 2.0 | 0.00 | 0.01 | 0.01 | 75 | 1008.0 |
| 20260507021105 | 66 | 179 | 0.0 | 3.0 | 0.00 | 0.01 | 0.01 | 75 | 1007.9 |
| 20260507020605 | 66 | 182 | 1.0 | 5.0 | 0.00 | 0.01 | 0.01 | 75 | 1008.0 |
| 20260507014105 | 66 | 105 | 1.0 | 2.0 | 0.00 | 0.01 | 0.01 | 74 | 1007.8 |
| 20260507013605 | 66 | 131 | 1.0 | 3.0 | 0.00 | 0.01 | 0.01 | 74 | 1007.8 |
| 20260507012606 | 67 | 177 | 1.0 | 5.0 | 0.00 | 0.01 | 0.01 | 73 | 1007.8 |
| 20260507012105 | 67 | 159 | 1.0 | 3.0 | 0.00 | 0.01 | 0.01 | 73 | 1007.8 |
| 20260507011606 | 67 | 152 | 2.0 | 3.0 | 0.00 | 0.01 | 0.01 | 73 | 1007.9 |
| 20260507011105 | 67 | 213 | 0.0 | 3.0 | 0.00 | 0.01 | 0.01 | 73 | 1007.9 |
| 20260507010605 | 67 | 159 | 1.0 | 3.0 | 0.00 | 0.01 | 0.01 | 73 | 1007.9 |
| 20260507010105 | 67 | 134 | 0.0 | 2.0 | 0.00 | 0.01 | 0.01 | 73 | 1008.0 |
| 20260507005605 | 67 | 210 | 1.0 | 6.0 | 0.00 | 0.01 | 0.01 | 73 | 1008.1 |
| 20260507004605 | 67 | 215 | 1.0 | 3.0 | 0.00 | 0.01 | 0.01 | 73 | 1008.1 |
| 20260507004105 | 67 | 176 | 1.0 | 3.0 | 0.00 | 0.01 | 0.01 | 72 | 1007.7 |
| 20260507003605 | 67 | 212 | 0.0 | 2.0 | 0.00 | 0.01 | 0.01 | 72 | 1007.4 |
| 20260507003104 | 67 | 192 | 1.0 | 3.0 | 0.00 | 0.01 | 0.01 | 72 | 1007.3 |
| 20260507002606 | 67 | 110 | 0.0 | 2.0 | 0.00 | 0.01 | 0.01 | 72 | 1007.2 |
| 20260507002104 | 68 | 124 | 2.0 | 8.0 | 0.00 | 0.01 | 0.01 | 72 | 1007.3 |
| 20260507001105 | 68 | 194 | 1.0 | 3.0 | 0.00 | 0.01 | 0.01 | 71 | 1007.3 |
| 20260507000605 | 68 | 183 | 0.0 | 2.0 | 0.00 | 0.01 | 0.01 | 71 | 1007.3 |
| 20260507000104 | 68 | 157 | 1.0 | 3.0 | 0.00 | 0.01 | 0.01 | 71 | 1007.2 |
| 20260506235605 | 68 | 198 | 0.0 | 2.0 | 0.00 | 0.01 | 0.01 | 70 | 1007.3 |
| 20260506235104 | 68 | 10 | 1.0 | 2.0 | 0.00 | 0.01 | 0.01 | 70 | 1007.1 |
| 20260506234104 | 69 | 157 | 1.0 | 3.0 | 0.00 | 0.01 | 0.01 | 69 | 1007.1 |
| 20260506233605 | 69 | 188 | 1.0 | 3.0 | 0.00 | 0.01 | 0.01 | 69 | 1007.0 |
| 20260506232605 | 69 | 196 | 1.0 | 7.0 | 0.00 | 0.01 | 0.01 | 68 | 1007.1 |
| 20260506232104 | 69 | 139 | 2.0 | 5.0 | 0.00 | 0.01 | 0.01 | 68 | 1007.1 |
| 20260506231105 | 70 | 159 | 2.0 | 6.0 | 0.00 | 0.01 | 0.01 | 68 | 1007.0 |
| 20260506230605 | 70 | 126 | 3.0 | 8.0 | 0.00 | 0.01 | 0.01 | 68 | 1007.1 |
| 20260506230104 | 70 | 192 | 1.0 | 7.0 | 0.00 | 0.01 | 0.01 | 68 | 1007.2 |
| 20260506224604 | 70 | 195 | 2.0 | 6.0 | 0.00 | 0.01 | 0.01 | 68 | 1007.2 |
| 20260506224105 | 70 | 150 | 1.0 | 7.0 | 0.00 | 0.01 | 0.01 | 68 | 1006.9 |
| 20260506223605 | 70 | 202 | 1.0 | 2.0 | 0.00 | 0.01 | 0.01 | 68 | 1006.8 |
| 20260506223105 | 70 | 201 | 2.0 | 7.0 | 0.00 | 0.01 | 0.01 | 68 | 1006.9 |
| 20260506222105 | 70 | 148 | 2.0 | 6.0 | 0.00 | 0.01 | 0.01 | 67 | 1007.0 |
| 20260506221604 | 71 | 188 | 2.0 | 5.0 | 0.00 | 0.01 | 0.01 | 67 | 1006.9 |
| 20260506220604 | 71 | 154 | 2.0 | 7.0 | 0.00 | 0.01 | 0.01 | 66 | 1007.0 |
| 20260506220105 | 72 | 225 | 3.0 | 7.0 | 0.00 | 0.01 | 0.01 | 65 | 1006.9 |
| 20260506215604 | 72 | 256 | 2.0 | 6.0 | 0.00 | 0.01 | 0.01 | 65 | 1006.9 |
| 20260506215105 | 72 | 171 | 4.0 | 10.0 | 0.00 | 0.01 | 0.01 | 65 | 1006.9 |
| 20260506214605 | 72 | 225 | 3.0 | 10.0 | 0.00 | 0.01 | 0.01 | 65 | 1006.8 |
| 20260506214106 | 71 | 208 | 3.0 | 12.0 | 0.00 | 0.01 | 0.01 | 66 | 1006.9 |
| 20260506213604 | 71 | 155 | 3.0 | 9.0 | 0.00 | 0.01 | 0.01 | 66 | 1007.0 |
| 20260506213105 | 70 | 170 | 4.0 | 8.0 | 0.00 | 0.01 | 0.01 | 67 | 1006.8 |
| 20260506212604 | 70 | 209 | 2.0 | 7.0 | 0.00 | 0.01 | 0.01 | 67 | 1006.8 |
| 20260506212104 | 70 | 187 | 2.0 | 9.0 | 0.00 | 0.01 | 0.01 | 67 | 1006.8 |
| 20260506211605 | 70 | 189 | 3.0 | 8.0 | 0.00 | 0.01 | 0.01 | 67 | 1006.8 |
| 20260506210105 | 70 | 182 | 3.0 | 13.0 | 0.00 | 0.01 | 0.01 | 67 | 1006.6 |
| 20260506205605 | 70 | 181 | 2.0 | 10.0 | 0.00 | 0.01 | 0.01 | 67 | 1006.7 |
| 20260506205105 | 69 | 208 | 3.0 | 9.0 | 0.00 | 0.01 | 0.01 | 67 | 1006.5 |
| 20260506204605 | 69 | 198 | 2.0 | 10.0 | 0.00 | 0.01 | 0.01 | 67 | 1006.5 |
| 20260506204104 | 69 | 167 | 3.0 | 9.0 | 0.00 | 0.01 | 0.01 | 67 | 1006.5 |
| 20260506203605 | 69 | 183 | 5.0 | 12.0 | 0.00 | 0.01 | 0.01 | 67 | 1006.4 |
| 20260506203105 | 69 | 192 | 4.0 | 14.0 | 0.00 | 0.01 | 0.01 | 67 | 1006.5 |
| 20260506202604 | 69 | 181 | 3.0 | 8.0 | 0.00 | 0.01 | 0.01 | 68 | 1006.4 |
| 20260506202104 | 69 | 143 | 3.0 | 9.0 | 0.00 | 0.01 | 0.01 | 68 | 1006.4 |
| 20260506201605 | 69 | 185 | 3.0 | 12.0 | 0.00 | 0.01 | 0.01 | 68 | 1006.4 |
| 20260506201105 | 68 | 194 | 3.0 | 12.0 | 0.00 | 0.01 | 0.01 | 68 | 1006.5 |
| 20260506200605 | 69 | 125 | 3.0 | 12.0 | 0.00 | 0.01 | 0.01 | 69 | 1006.5 |
| 20260506200105 | 69 | 131 | 3.0 | 10.0 | 0.00 | 0.01 | 0.01 | 68 | 1006.6 |